createdAt,value
2018-09-25T00:02:18.401Z,72.93
2018-09-25T00:04:50.968Z,72.72
2018-09-25T00:07:23.663Z,73.29
2018-09-25T00:09:56.663Z,73.30
2018-09-25T00:12:29.420Z,73.84
2018-09-25T00:15:02.007Z,73.57
2018-09-25T00:17:35.008Z,73.39
2018-09-25T00:20:07.656Z,73.97
2018-09-25T00:22:40.374Z,73.82
2018-09-25T00:25:13.356Z,73.88
2018-09-25T00:27:46.072Z,73.85
2018-09-25T00:30:18.637Z,73.73
2018-09-25T00:32:51.717Z,73.73
2018-09-25T00:35:24.372Z,73.81
2018-09-25T00:37:56.972Z,73.52
2018-09-25T00:40:30.034Z,73.89
2018-09-25T00:43:02.669Z,73.74
2018-09-25T00:45:35.358Z,73.35
2018-09-25T00:48:08.321Z,73.32
2018-09-25T00:50:40.935Z,73.90
2018-09-25T00:53:13.987Z,73.87
2018-09-25T00:55:46.638Z,74.22
2018-09-25T00:58:19.257Z,74.25
2018-09-25T01:00:53.358Z,74.39
2018-09-25T01:03:25.969Z,74.25
2018-09-25T01:05:58.505Z,74.40
2018-09-25T01:08:31.114Z,73.97
2018-09-25T01:11:03.848Z,74.65
2018-09-25T01:13:36.477Z,74.39
2018-09-25T01:16:09.592Z,74.47
2018-09-25T01:18:42.195Z,74.38
2018-09-25T01:21:15.144Z,74.49
2018-09-25T01:23:47.850Z,74.43
2018-09-25T01:26:20.512Z,74.59
2018-09-25T01:28:53.088Z,74.74
2018-09-25T01:31:26.197Z,74.43
2018-09-25T01:33:58.865Z,75.02
2018-09-25T01:36:32.261Z,74.85
2018-09-25T01:39:05.127Z,74.62
2018-09-25T01:41:37.827Z,74.33
2018-09-25T01:44:10.493Z,74.70
2018-09-25T01:46:43.201Z,74.81
2018-09-25T01:49:16.093Z,75.09
2018-09-25T01:51:48.809Z,75.24
2018-09-25T01:54:21.372Z,74.91
2018-09-25T01:56:54.105Z,75.30
2018-09-25T01:59:27.631Z,75.25
2018-09-25T02:02:00.393Z,75.05
2018-09-25T02:04:33.156Z,75.17
2018-09-25T02:07:08.045Z,75.54
2018-09-25T02:09:40.608Z,75.12
2018-09-25T02:12:13.375Z,75.22
2018-09-25T02:14:46.988Z,75.03
2018-09-25T02:17:19.911Z,74.88
2018-09-25T02:19:52.683Z,74.98
2018-09-25T02:22:30.369Z,74.89
2018-09-25T02:25:03.171Z,74.45
2018-09-25T02:27:35.965Z,74.88
2018-09-25T02:30:11.057Z,74.94
2018-09-25T02:32:43.791Z,74.78
2018-09-25T02:35:24.172Z,75.17
2018-09-25T02:37:57.697Z,74.40
2018-09-25T02:40:30.447Z,74.41
2018-09-25T02:43:03.520Z,74.51
2018-09-25T02:45:38.327Z,74.47
2018-09-25T02:48:11.189Z,74.85
2018-09-25T02:50:44.665Z,74.81
2018-09-25T02:53:17.897Z,74.45
2018-09-25T02:55:50.525Z,74.41
2018-09-25T02:58:23.633Z,74.74
2018-09-25T03:00:56.408Z,74.20
2018-09-25T03:03:28.950Z,74.70
2018-09-25T03:06:01.992Z,74.44
2018-09-25T03:08:34.807Z,74.54
2018-09-25T03:11:08.401Z,74.68
2018-09-25T03:13:40.978Z,74.66
2018-09-25T03:16:14.245Z,75.00
2018-09-25T03:18:47.800Z,75.03
2018-09-25T03:21:20.605Z,74.78
2018-09-25T03:23:53.423Z,74.91
2018-09-25T03:26:27.234Z,74.87
2018-09-25T03:29:00.032Z,74.78
2018-09-25T03:31:32.616Z,74.88
2018-09-25T03:34:05.766Z,75.15
2018-09-25T03:36:38.578Z,74.98
2018-09-25T03:39:11.371Z,75.06
2018-09-25T03:41:44.399Z,74.80
2018-09-25T03:44:17.061Z,75.25
2018-09-25T03:46:49.808Z,75.46
2018-09-25T03:49:24.950Z,75.30
2018-09-25T03:51:57.680Z,75.98
2018-09-25T03:54:30.436Z,75.76
2018-09-25T03:57:03.444Z,75.74
2018-09-25T03:59:36.802Z,75.71
2018-09-25T04:02:09.522Z,75.83
2018-09-25T04:04:42.587Z,76.26
2018-09-25T04:07:16.553Z,76.31
2018-09-25T04:09:50.395Z,75.93
2018-09-25T04:12:23.738Z,75.96
2018-09-25T04:14:56.496Z,75.86
2018-09-25T04:17:30.047Z,76.45
2018-09-25T04:20:02.672Z,76.03
2018-09-25T04:22:36.141Z,76.14
2018-09-25T04:25:09.100Z,76.48
2018-09-25T04:27:41.847Z,76.07
2018-09-25T04:30:14.808Z,76.09
2018-09-25T04:32:47.319Z,76.57
2018-09-25T04:35:20.360Z,76.58
2018-09-25T04:37:53.148Z,76.13
2018-09-25T04:40:25.862Z,76.05
2018-09-25T04:42:59.971Z,76.28
2018-09-25T04:45:32.700Z,76.09
2018-09-25T04:48:05.988Z,76.17
2018-09-25T04:50:38.636Z,76.02
2018-09-25T04:53:11.391Z,75.88
2018-09-25T04:55:43.967Z,75.93
2018-09-25T04:58:18.849Z,75.88
2018-09-25T05:00:51.921Z,75.80
2018-09-25T05:03:24.860Z,75.85
2018-09-25T05:05:58.627Z,75.91
2018-09-25T05:08:31.360Z,75.74
2018-09-25T05:11:04.252Z,76.07
2018-09-25T05:13:37.758Z,76.27
2018-09-25T05:16:10.268Z,76.36
2018-09-25T05:18:43.417Z,76.30
2018-09-25T05:21:17.156Z,76.44
2018-09-25T05:23:50.815Z,76.46
2018-09-25T05:26:23.413Z,76.45
2018-09-25T05:28:56.414Z,75.97
2018-09-25T05:31:29.221Z,76.14
2018-09-25T05:34:02.804Z,76.09
2018-09-25T05:36:37.421Z,76.39
2018-09-25T05:39:10.012Z,76.34
2018-09-25T05:41:42.827Z,76.38
2018-09-25T05:44:16.654Z,76.33
2018-09-25T05:46:50.497Z,76.44
2018-09-25T05:49:23.332Z,76.13
2018-09-25T05:51:56.224Z,76.16
2018-09-25T05:54:30.021Z,76.42
2018-09-25T05:57:02.775Z,76.17
2018-09-25T05:59:35.580Z,76.10
2018-09-25T06:02:08.689Z,75.80
2018-09-25T06:04:41.417Z,75.46
2018-09-25T06:07:15.841Z,75.52
2018-09-25T06:09:51.689Z,75.10
2018-09-25T06:12:25.721Z,75.30
2018-09-25T06:14:59.937Z,75.59
2018-09-25T06:17:32.544Z,75.00
2018-09-25T06:20:05.308Z,75.38
2018-09-25T06:22:38.013Z,74.59
2018-09-25T06:25:12.417Z,75.15
2018-09-25T06:27:45.207Z,74.46
2018-09-25T06:30:17.958Z,74.58
2018-09-25T06:32:51.187Z,74.42
2018-09-25T06:35:25.656Z,74.33
2018-09-25T06:37:58.331Z,74.14
2018-09-25T06:40:31.521Z,74.31
2018-09-25T06:43:06.208Z,73.48
2018-09-25T06:45:40.261Z,73.71
2018-09-25T06:48:13.908Z,73.62
2018-09-25T06:50:46.738Z,73.54
2018-09-25T06:53:19.489Z,73.30
2018-09-25T06:55:52.220Z,73.24
2018-09-25T06:58:26.271Z,73.08
2018-09-25T07:00:59.350Z,72.74
2018-09-25T07:03:33.140Z,72.45
2018-09-25T07:06:06.790Z,72.53
2018-09-25T07:08:39.852Z,72.29
2018-09-25T07:11:12.590Z,72.09
2018-09-25T07:13:46.797Z,72.10
2018-09-25T07:16:19.842Z,71.88
2018-09-25T07:18:52.600Z,71.94
2018-09-25T07:21:25.677Z,71.45
2018-09-25T07:23:58.344Z,71.23
2018-09-25T07:26:31.288Z,71.28
2018-09-25T07:29:04.072Z,70.93
2018-09-25T07:31:37.625Z,70.98
2018-09-25T07:34:10.308Z,71.12
2018-09-25T07:36:43.112Z,70.86
2018-09-25T07:39:17.008Z,70.49
2018-09-25T07:41:50.405Z,70.28
2018-09-25T07:44:26.051Z,69.61
2018-09-25T07:46:59.469Z,69.63
2018-09-25T07:49:32.473Z,69.00
2018-09-25T07:52:05.056Z,68.75
2018-09-25T07:54:38.058Z,68.52
2018-09-25T07:57:11.200Z,68.23
2018-09-25T07:59:43.978Z,68.35
2018-09-25T08:02:16.599Z,68.14
2018-09-25T08:04:50.559Z,67.19
2018-09-25T08:07:23.440Z,67.94
2018-09-25T08:09:57.561Z,67.37
2018-09-25T08:12:30.343Z,67.65
2018-09-25T08:15:03.441Z,66.22
2018-09-25T08:17:36.059Z,67.32
2018-09-25T08:20:08.772Z,66.48
2018-09-25T08:22:42.683Z,66.25
2018-09-25T08:25:15.936Z,66.05
2018-09-25T08:27:48.660Z,65.61
2018-09-25T08:30:21.692Z,65.70
2018-09-25T08:32:54.427Z,65.17
2018-09-25T08:35:27.391Z,64.84
2018-09-25T08:38:01.347Z,64.90
2018-09-25T08:40:34.389Z,63.81
2018-09-25T08:43:07.276Z,64.07
2018-09-25T08:45:40.093Z,63.96
2018-09-25T08:48:17.795Z,63.54
2018-09-25T08:50:51.035Z,63.84
2018-09-25T08:53:23.880Z,63.49
2018-09-25T08:55:56.812Z,63.91
2018-09-25T08:58:30.484Z,63.34
2018-09-25T09:03:43.518Z,63.67
2018-09-25T09:06:18.504Z,63.33
2018-09-25T09:08:51.600Z,62.75
2018-09-25T09:11:25.250Z,62.09
2018-09-25T09:13:58.311Z,61.38
2018-09-25T09:16:31.829Z,60.42
2018-09-25T09:19:06.078Z,60.72
2018-09-25T09:21:39.045Z,59.42
2018-09-25T09:24:11.798Z,60.31
2018-09-25T09:26:44.564Z,60.27
2018-09-25T09:29:17.849Z,60.03
2018-09-25T09:31:51.217Z,60.50
2018-09-25T09:34:25.228Z,61.02
2018-09-25T09:37:00.732Z,60.44
2018-09-25T09:39:33.712Z,59.43
2018-09-25T09:42:06.611Z,57.33
2018-09-25T09:44:40.304Z,56.45
2018-09-25T09:47:13.937Z,54.43
2018-09-25T09:49:46.596Z,52.76
2018-09-25T09:52:23.060Z,52.12
2018-09-25T09:54:56.465Z,50.59
2018-09-25T09:57:30.308Z,50.15
2018-09-25T10:00:03.356Z,48.94
2018-09-25T10:02:36.053Z,48.35
2018-09-25T10:05:10.885Z,46.88
2018-09-25T10:07:44.852Z,46.53
2018-09-25T10:10:17.541Z,45.62
2018-09-25T10:12:51.498Z,45.32
2018-09-25T10:15:25.740Z,44.60
2018-09-25T10:17:58.368Z,44.46
2018-09-25T10:20:31.100Z,44.19
2018-09-25T10:23:06.177Z,44.47
2018-09-25T10:25:38.907Z,43.61
2018-09-25T10:28:12.305Z,42.16
2018-09-25T10:30:50.343Z,42.56
2018-09-25T10:33:23.375Z,40.89
2018-09-25T10:35:56.462Z,41.75
2018-09-25T10:38:31.377Z,41.16
2018-09-25T10:41:04.156Z,39.84
2018-09-25T10:43:36.875Z,39.57
2018-09-25T10:46:12.008Z,39.23
2018-09-25T10:48:44.612Z,39.04
2018-09-25T10:51:18.235Z,39.32
2018-09-25T10:53:51.461Z,38.94
2018-09-25T10:56:26.970Z,38.75
2018-09-25T10:58:59.995Z,38.00
2018-09-25T11:01:33.427Z,38.11
2018-09-25T11:04:06.113Z,37.60
2018-09-25T11:06:40.457Z,36.46
2018-09-25T11:09:13.090Z,37.26
2018-09-25T11:11:46.512Z,39.27
2018-09-25T11:14:22.390Z,43.80
2018-09-25T11:16:56.480Z,47.27
2018-09-25T11:19:31.679Z,50.47
2018-09-25T11:22:05.336Z,52.01
2018-09-25T11:24:38.100Z,54.87
2018-09-25T11:27:12.265Z,56.24
2018-09-25T11:29:45.515Z,57.79
2018-09-25T11:32:18.248Z,58.69
2018-09-25T11:34:51.128Z,59.41
2018-09-25T11:37:24.191Z,59.70
2018-09-25T11:39:57.500Z,59.74
2018-09-25T11:42:30.271Z,60.16
2018-09-25T11:45:05.559Z,60.40
2018-09-25T11:47:39.413Z,60.13
2018-09-25T11:50:12.274Z,60.27
2018-09-25T11:52:46.346Z,60.32
2018-09-25T11:55:19.122Z,60.98
2018-09-25T11:57:53.476Z,60.98
2018-09-25T12:00:26.399Z,60.56
2018-09-25T12:03:00.124Z,60.27
2018-09-25T12:05:34.279Z,60.11
2018-09-25T12:08:10.612Z,59.28
2018-09-25T12:10:45.520Z,59.45
2018-09-25T12:13:19.238Z,58.79
2018-09-25T12:15:51.997Z,58.02
2018-09-25T12:18:26.525Z,55.48
2018-09-25T12:20:59.122Z,51.72
2018-09-25T12:23:34.002Z,47.39
2018-09-25T12:26:08.896Z,44.27
2018-09-25T12:28:41.480Z,43.57
2018-09-25T12:31:14.243Z,44.74
2018-09-25T12:33:47.267Z,46.59
2018-09-25T12:36:19.832Z,47.98
2018-09-25T12:38:53.578Z,48.82
2018-09-25T12:41:28.382Z,49.76
2018-09-25T12:44:01.040Z,50.55
2018-09-25T12:46:33.755Z,51.06
2018-09-25T12:49:07.562Z,51.33
2018-09-25T12:51:40.168Z,52.09
2018-09-25T12:54:12.889Z,52.23
2018-09-25T12:56:46.371Z,52.77
2018-09-25T12:59:18.964Z,52.90
2018-09-25T13:01:54.523Z,53.10
2018-09-25T13:04:27.209Z,52.58
2018-09-25T13:07:00.335Z,53.29
2018-09-25T13:09:36.312Z,52.70
2018-09-25T13:12:12.375Z,53.14
2018-09-25T13:14:45.758Z,52.67
2018-09-25T13:17:18.449Z,52.46
2018-09-25T13:19:51.311Z,51.84
2018-09-25T13:22:24.604Z,52.01
2018-09-25T13:24:57.413Z,51.89
2018-09-25T13:27:31.719Z,52.86
2018-09-25T13:30:05.033Z,52.32
2018-09-25T13:32:37.726Z,51.66
2018-09-25T13:35:12.846Z,51.60
2018-09-25T13:37:46.738Z,51.91
2018-09-25T13:40:22.330Z,51.67
2018-09-25T13:42:55.306Z,51.84
2018-09-25T13:45:30.935Z,51.13
2018-09-25T13:48:10.768Z,51.72
2018-09-25T13:50:43.461Z,51.41
2018-09-25T13:53:16.434Z,50.84
2018-09-25T13:55:49.208Z,51.17
2018-09-25T13:58:22.954Z,50.49
2018-09-25T14:00:55.816Z,51.13
2018-09-25T14:03:29.222Z,50.13
2018-09-25T14:06:02.409Z,50.87
2018-09-25T14:08:38.457Z,50.58
2018-09-25T14:11:11.623Z,50.83
2018-09-25T14:13:45.392Z,51.82
2018-09-25T14:16:19.148Z,51.18
2018-09-25T14:18:51.828Z,50.87
2018-09-25T14:21:24.439Z,50.67
2018-09-25T14:23:58.459Z,51.04
2018-09-25T14:26:32.070Z,50.80
2018-09-25T14:29:04.777Z,50.32
2018-09-25T14:31:39.548Z,50.10
2018-09-25T14:34:12.877Z,50.65
2018-09-25T14:36:47.994Z,50.54
2018-09-25T14:39:21.644Z,50.05
2018-09-25T14:41:54.259Z,50.29
2018-09-25T14:44:27.952Z,49.89
2018-09-25T14:47:03.106Z,49.91
2018-09-25T14:49:35.747Z,49.02
2018-09-25T14:52:10.073Z,49.09
2018-09-25T14:54:42.752Z,48.78
2018-09-25T14:57:16.487Z,48.00
2018-09-25T14:59:50.717Z,48.35
2018-09-25T15:02:23.347Z,47.96
2018-09-25T15:04:56.594Z,48.28
2018-09-25T15:07:30.239Z,49.11
2018-09-25T15:10:02.824Z,48.98
2018-09-25T15:12:36.434Z,48.50
2018-09-25T15:15:09.542Z,49.42
2018-09-25T15:17:43.432Z,49.88
2018-09-25T15:20:16.976Z,49.93
2018-09-25T15:22:50.004Z,50.09
2018-09-25T15:28:02.874Z,51.02
2018-09-25T15:30:37.406Z,51.19
2018-09-25T15:33:11.459Z,51.74
2018-09-25T15:35:45.431Z,52.34
2018-09-25T15:38:20.273Z,52.39
2018-09-25T15:40:53.663Z,52.25
2018-09-25T15:43:26.432Z,51.62
2018-09-25T15:45:59.739Z,51.24
2018-09-25T15:48:33.843Z,51.06
2018-09-25T15:51:07.410Z,50.76
2018-09-25T15:53:41.437Z,51.87
2018-09-25T15:56:15.654Z,52.17
2018-09-25T15:58:50.320Z,51.96
2018-09-25T16:01:24.377Z,52.91
2018-09-25T16:03:59.506Z,52.41
2018-09-25T16:06:40.965Z,52.96
2018-09-25T16:09:14.590Z,53.37
2018-09-25T16:11:47.367Z,53.49
2018-09-25T16:14:20.347Z,53.07
2018-09-25T16:16:53.098Z,53.02
2018-09-25T16:19:26.334Z,53.25
2018-09-25T16:21:59.457Z,54.13
2018-09-25T16:24:33.216Z,53.81
2018-09-25T16:27:05.962Z,53.79
2018-09-25T16:29:38.921Z,53.61
2018-09-25T16:32:11.674Z,53.81
2018-09-25T16:34:44.267Z,54.74
2018-09-25T16:37:18.537Z,53.94
2018-09-25T16:39:51.259Z,54.15
2018-09-25T16:42:25.287Z,54.47
2018-09-25T16:44:57.878Z,55.02
2018-09-25T16:47:40.251Z,54.66
2018-09-25T16:50:12.851Z,54.69
2018-09-25T16:52:46.092Z,55.57
2018-09-25T16:55:18.892Z,55.29
2018-09-25T16:57:51.910Z,55.44
2018-09-25T17:00:24.652Z,56.08
2018-09-25T17:02:57.264Z,55.44
2018-09-25T17:05:30.451Z,56.31
2018-09-25T17:08:04.286Z,55.72
2018-09-25T17:10:39.219Z,56.20
2018-09-25T17:13:13.135Z,56.44
2018-09-25T17:15:46.457Z,57.32
2018-09-25T17:18:19.846Z,57.66
2018-09-25T17:20:52.926Z,57.29
2018-09-25T17:23:26.342Z,57.92
2018-09-25T17:25:58.936Z,58.22
2018-09-25T17:28:34.363Z,57.86
2018-09-25T17:31:10.446Z,58.46
2018-09-25T17:33:43.241Z,58.47
2018-09-25T17:36:15.961Z,58.65
2018-09-25T17:38:48.760Z,59.31
2018-09-25T17:41:23.094Z,59.37
2018-09-25T17:43:56.977Z,59.47
2018-09-25T17:46:31.191Z,59.04
2018-09-25T17:49:03.817Z,59.34
2018-09-25T17:51:36.910Z,59.56
2018-09-25T17:54:09.477Z,59.69
2018-09-25T17:56:42.772Z,59.57
2018-09-25T17:59:16.632Z,59.52
2018-09-25T18:01:49.495Z,59.69
2018-09-25T18:04:24.239Z,59.91
2018-09-25T18:06:57.961Z,60.51
2018-09-25T18:09:30.672Z,60.91
2018-09-25T18:12:03.381Z,60.97
2018-09-25T18:14:38.357Z,60.77
2018-09-25T18:17:11.119Z,61.04
2018-09-25T18:19:44.377Z,61.04
2018-09-25T18:22:18.439Z,61.48
2018-09-25T18:24:55.287Z,61.18
2018-09-25T18:27:31.070Z,62.21
2018-09-25T18:30:04.318Z,61.86
2018-09-25T18:32:37.679Z,62.81
2018-09-25T18:35:13.097Z,62.55
2018-09-25T18:37:45.932Z,62.58
2018-09-25T18:40:18.673Z,62.62
2018-09-25T18:42:53.133Z,62.69
2018-09-25T18:45:26.751Z,63.11
2018-09-25T18:48:02.842Z,62.76
2018-09-25T18:50:36.454Z,63.43
2018-09-25T18:53:09.225Z,62.74
2018-09-25T18:55:42.278Z,62.47
2018-09-25T18:58:15.068Z,62.73
2018-09-25T19:00:47.811Z,62.69
2018-09-25T19:03:20.936Z,62.85
2018-09-25T19:05:53.643Z,63.15
2018-09-25T19:08:27.225Z,62.96
2018-09-25T19:11:00.554Z,63.43
2018-09-25T19:13:33.506Z,63.29
2018-09-25T19:16:08.322Z,63.56
2018-09-25T19:18:42.062Z,64.24
2018-09-25T19:21:15.034Z,64.18
2018-09-25T19:23:49.096Z,63.85
2018-09-25T19:26:24.207Z,64.26
2018-09-25T19:28:59.215Z,64.24
2018-09-25T19:31:31.922Z,64.46
2018-09-25T19:34:04.666Z,64.51
2018-09-25T19:36:38.995Z,65.02
2018-09-25T19:39:13.381Z,65.22
2018-09-25T19:41:46.560Z,64.83
2018-09-25T19:44:19.597Z,65.15
2018-09-25T19:46:52.339Z,65.10
2018-09-25T19:49:25.044Z,65.09
2018-09-25T19:51:59.041Z,65.19
2018-09-25T19:54:31.658Z,65.67
2018-09-25T19:57:04.434Z,65.71
2018-09-25T19:59:37.459Z,65.50
2018-09-25T20:02:10.152Z,65.88
2018-09-25T20:04:42.729Z,65.55
2018-09-25T20:07:16.615Z,65.60
2018-09-25T20:09:50.908Z,65.77
2018-09-25T20:12:24.674Z,66.46
2018-09-25T20:14:58.187Z,65.64
2018-09-25T20:20:19.250Z,65.52
2018-09-25T20:22:52.307Z,65.83
2018-09-25T20:25:25.616Z,66.04
2018-09-25T20:28:00.398Z,65.56
2018-09-25T20:30:34.338Z,65.71
2018-09-25T20:33:07.527Z,65.91
2018-09-25T20:35:41.786Z,66.20
2018-09-25T20:38:14.434Z,66.15
2018-09-25T20:40:48.631Z,66.04
2018-09-25T20:43:22.919Z,66.19
2018-09-25T20:45:55.787Z,66.50
2018-09-25T20:48:28.650Z,66.42
2018-09-25T20:51:01.401Z,66.34
2018-09-25T20:53:38.491Z,66.65
2018-09-25T20:56:11.245Z,66.59
2018-09-25T20:58:44.375Z,66.73
2018-09-25T21:01:17.800Z,66.72
2018-09-25T21:03:51.743Z,66.30
2018-09-25T21:06:27.528Z,66.60
2018-09-25T21:09:02.540Z,66.64
2018-09-25T21:11:35.175Z,66.32
2018-09-25T21:14:08.794Z,66.43
2018-09-25T21:16:41.483Z,66.94
2018-09-25T21:19:14.737Z,66.53
2018-09-25T21:21:47.746Z,66.50
2018-09-25T21:24:20.484Z,66.40
2018-09-25T21:26:53.535Z,66.97
2018-09-25T21:29:29.231Z,67.07
2018-09-25T21:32:05.419Z,66.96
2018-09-25T21:34:38.418Z,66.92
2018-09-25T21:37:14.594Z,66.40
2018-09-25T21:39:47.616Z,67.19
2018-09-25T21:42:20.331Z,66.80
2018-09-25T21:44:53.074Z,67.20
2018-09-25T21:47:26.299Z,66.84
2018-09-25T21:49:59.804Z,66.47
2018-09-25T21:52:33.206Z,66.80
2018-09-25T21:55:06.726Z,67.31
2018-09-25T21:57:40.083Z,66.89
2018-09-25T22:00:12.762Z,66.76
2018-09-25T22:02:45.310Z,67.02
2018-09-25T22:05:18.576Z,66.81
2018-09-25T22:07:51.349Z,67.25
2018-09-25T22:10:24.325Z,67.80
2018-09-25T22:12:57.743Z,67.42
2018-09-25T22:15:32.144Z,67.35
2018-09-25T22:18:05.345Z,68.38
2018-09-25T22:20:37.944Z,68.41
2018-09-25T22:23:11.431Z,67.74
2018-09-25T22:25:44.860Z,67.39
2018-09-25T22:28:17.432Z,67.54
2018-09-25T22:30:50.639Z,67.31
2018-09-25T22:33:24.521Z,67.55
2018-09-25T22:35:57.449Z,67.63
2018-09-25T22:38:30.216Z,67.76
2018-09-25T22:41:04.400Z,67.75
2018-09-25T22:43:37.700Z,67.47
2018-09-25T22:46:10.968Z,67.29
2018-09-25T22:48:45.009Z,67.85
2018-09-25T22:51:18.261Z,67.27
2018-09-25T22:53:50.851Z,67.40
2018-09-25T22:56:24.678Z,67.57
2018-09-25T22:58:58.241Z,67.80
2018-09-25T23:01:31.302Z,67.66
2018-09-25T23:04:03.908Z,67.91
2018-09-25T23:06:36.566Z,68.34
2018-09-25T23:09:09.086Z,67.96
2018-09-25T23:11:41.843Z,67.85
2018-09-25T23:14:14.913Z,68.14
2018-09-25T23:16:48.017Z,68.14
2018-09-25T23:19:21.756Z,67.94
2018-09-25T23:21:54.457Z,68.24
2018-09-25T23:24:27.339Z,68.14
2018-09-25T23:27:00.803Z,68.14
2018-09-25T23:29:34.206Z,67.91
2018-09-25T23:32:07.294Z,68.46
2018-09-25T23:34:39.914Z,67.64
2018-09-25T23:37:12.962Z,68.14
2018-09-25T23:40:48.842Z,68.28
2018-09-25T23:44:23.889Z,68.51
2018-09-25T23:46:57.018Z,68.70
2018-09-25T23:49:38.551Z,68.48
2018-09-25T23:52:27.822Z,68.81
2018-09-25T23:56:09.116Z,68.89
2018-09-25T23:58:48.890Z,69.19
